Aérodrome :
LOGIN :

S'inscrire | Disclaimer

   EN    FR    IT 

 










Légende :    VFR   VFR Marginal   IFR   IFR Intensif   IFR Très Intensif
Visi : 
Plafond : 
>= 8 km
>= 3000ft
5 à 8 km
1000 à 3000 ft
1500m à 5 km
500 à 1000 ft
800 à 1500m
200 à 500 ft
< 800m
< 200 ft
Symboles :   Orages  Brouillard  Fortes neiges  Fortes précipitations  Vent > 20 kt
SIGMETs :   Divers  Orages  Givrage  Turbulence  Onde Orograph.  Cendres Volcan.







- Altitude de l'aérodrome : 179 ft


LIPI - Rivolto AFB Udine

DERNIER METAR :
  • 171055Z 16003KT 9999 SCT025 BKN030 25/19 Q1015 RMK OVC VIS MIN 9999 WIND THR06 VRB01KT WIND THR24 19003KT BLU

METARs EXPIRÉS :
  • 170955Z 15003KT 8000 SCT020 BKN030 24/20 Q1015 RMK OVC VIS MIN 8000 WIND THR06 18003KT WIND THR24 15004KT BLU
  • 170855Z 07004KT 7000 FEW010 SCT025 23/19 Q1015 RMK OVC VIS MIN 7000 WIND THR06 12003KT WIND THR24 11003KT WHT
  • 170755Z 08004KT 7000 FEW008 SCT015 22/19 Q1015 RMK OVC VIS MIN 7000 WIND THR06 12003KT WIND THR24 09004KT WHT

TAF TAF LIPI
Valide du 17 à 09h jusqu'au 17 à 18h UTC


170800Z 1709/1718 16005KT 9999 SCT010 SCT050
Pas de NOTAMs connus pour ce terrain.



MET'MAP, la Météo Aéronautique d'un coup d'oeil ! - Copyright ORBIFLY Décembre 2007 - Disclaimer

ORBIFLY MET'MAP TEAM :

Programmation & Développement : Alexandra Zaïnal
Conception & Développement : Baudouin d'Aumeries
Co-Programmation & Développement : Marc-Olivier Méhu
Soutien technique & logistique : Manuel Goepfert

Contact : metmap@orbifly.com




SOURCES & CREDITS :

   NOAA